Time;durP1;ratioP1;P1;durP2;ratioP2;P2;SDS_P1;SDS_P2;PMS_P1;PMS_P2;Temp;Humidity;BMP_temperature;BMP_pressure;BME280_temperature;BME280_humidity;BME280_pressure;Samples;Min_cycle;Max_cycle;Signal;HPM_P1;HPM_P2
2023/08/14 00:00:33;;;;;;;3.58;2.28;;;;;;;;;;4997352;28;20287;-48
2023/08/14 00:02:59;;;;;;;2.05;1.95;;;;;;;;;;5004678;28;20297;-48
2023/08/14 00:05:26;;;;;;;6.00;2.42;;;;;;;;;;5007908;28;20275;-47
2023/08/14 00:07:52;;;;;;;4.72;2.50;;;;;;;;;;4993406;28;20177;-47
2023/08/14 00:10:18;;;;;;;2.60;2.40;;;;;;;;;;4995326;28;20427;-47
2023/08/14 00:12:43;;;;;;;2.97;2.28;;;;;;;;;;4993805;28;20174;-47
2023/08/14 00:15:10;;;;;;;2.40;2.20;;;;;;;;;;4998734;28;20177;-47
2023/08/14 00:17:35;;;;;;;3.90;2.30;;;;;;;;;;4993201;28;20181;-47
2023/08/14 00:20:02;;;;;;;2.55;2.35;;;;;;;;;;4998754;28;20508;-48
2023/08/14 00:22:28;;;;;;;2.70;2.50;;;;;;;;;;4994331;28;20185;-47
2023/08/14 00:24:54;;;;;;;3.35;2.60;;;;;;;;;;4992468;28;20177;-48
2023/08/14 00:27:22;;;;;;;2.30;2.10;;;;;;;;;;4992505;28;20448;-48
2023/08/14 00:29:48;;;;;;;3.30;2.30;;;;;;;;;;4992747;28;20255;-48
2023/08/14 00:32:14;;;;;;;2.15;2.05;;;;;;;;;;4995441;28;20268;-48
2023/08/14 00:34:40;;;;;;;2.25;2.00;;;;;;;;;;5001565;28;20307;-47
2023/08/14 00:37:06;;;;;;;2.45;2.15;;;;;;;;;;4994098;28;20320;-47
2023/08/14 00:39:32;;;;;;;3.17;2.25;;;;;;;;;;5005790;28;20283;-47
2023/08/14 00:41:57;;;;;;;2.80;2.30;;;;;;;;;;4993119;28;20466;-47
2023/08/14 00:44:23;;;;;;;2.70;2.38;;;;;;;;;;4994427;28;20190;-48
2023/08/14 00:46:50;;;;;;;4.45;2.40;;;;;;;;;;4995303;28;20247;-48
2023/08/14 00:49:16;;;;;;;2.53;2.28;;;;;;;;;;4998152;28;20184;-48
2023/08/14 00:51:42;;;;;;;3.92;2.30;;;;;;;;;;4996384;28;20259;-48
2023/08/14 00:54:08;;;;;;;3.13;2.22;;;;;;;;;;4988968;28;20228;-48
2023/08/14 00:56:34;;;;;;;2.50;2.22;;;;;;;;;;4998227;28;20193;-48
2023/08/14 00:59:00;;;;;;;3.83;2.30;;;;;;;;;;4994269;28;20189;-48
2023/08/14 01:01:26;;;;;;;3.05;2.08;;;;;;;;;;4990612;28;20212;-48
2023/08/14 01:03:52;;;;;;;2.38;2.05;;;;;;;;;;5001993;28;20255;-48
2023/08/14 01:06:18;;;;;;;3.08;2.40;;;;;;;;;;5008050;28;20267;-48
2023/08/14 01:08:45;;;;;;;2.50;2.22;;;;;;;;;;5006033;28;20707;-48
2023/08/14 01:11:23;;;;;;;3.67;2.13;;;;;;;;;;5004564;28;20570;-48
2023/08/14 01:13:57;;;;;;;2.30;2.10;;;;;;;;;;4990713;28;20492;-48
2023/08/14 01:16:25;;;;;;;3.70;2.10;;;;;;;;;;4993708;28;20182;-48
2023/08/14 01:18:52;;;;;;;3.75;2.60;;;;;;;;;;5002083;28;20188;-48
2023/08/14 01:21:38;;;;;;;4.03;2.40;;;;;;;;;;4998891;28;20201;-48
2023/08/14 01:24:03;;;;;;;2.25;2.08;;;;;;;;;;4988493;28;20595;-48
2023/08/14 01:26:29;;;;;;;3.28;2.10;;;;;;;;;;4997701;28;20208;-48
2023/08/14 01:28:56;;;;;;;3.30;2.30;;;;;;;;;;4997441;28;20275;-48
2023/08/14 01:31:22;;;;;;;2.97;2.30;;;;;;;;;;4991205;28;20181;-48
2023/08/14 01:33:47;;;;;;;3.25;2.22;;;;;;;;;;4995865;28;20181;-48
2023/08/14 01:36:21;;;;;;;3.08;2.50;;;;;;;;;;4994830;28;20181;-48
2023/08/14 01:38:54;;;;;;;2.65;2.45;;;;;;;;;;4997414;28;20212;-48
2023/08/14 01:41:26;;;;;;;2.90;2.28;;;;;;;;;;4995777;28;20212;-48
2023/08/14 01:43:54;;;;;;;4.85;2.70;;;;;;;;;;4988587;28;20186;-48
2023/08/14 01:46:21;;;;;;;2.00;1.90;;;;;;;;;;4989500;28;20483;-48
2023/08/14 01:48:48;;;;;;;2.83;2.22;;;;;;;;;;4996473;28;20471;-47
2023/08/14 01:51:14;;;;;;;4.03;2.20;;;;;;;;;;4994570;28;20181;-48
2023/08/14 01:53:40;;;;;;;3.47;2.10;;;;;;;;;;4989293;28;20196;-48
2023/08/14 01:56:06;;;;;;;3.25;2.17;;;;;;;;;;4996736;28;20180;-48
2023/08/14 01:58:32;;;;;;;2.10;1.98;;;;;;;;;;5005194;28;20189;-48
2023/08/14 02:00:58;;;;;;;2.28;2.08;;;;;;;;;;4995406;28;20449;-48
2023/08/14 02:03:25;;;;;;;3.22;2.03;;;;;;;;;;4987078;28;20193;-48
2023/08/14 02:05:51;;;;;;;2.50;2.30;;;;;;;;;;5004719;28;20231;-48
2023/08/14 02:08:17;;;;;;;3.13;2.25;;;;;;;;;;5007591;28;20208;-48
2023/08/14 02:10:43;;;;;;;3.40;2.20;;;;;;;;;;4995206;28;20292;-48
2023/08/14 02:13:09;;;;;;;2.30;2.10;;;;;;;;;;4984622;28;20221;-48
2023/08/14 02:15:35;;;;;;;3.33;2.10;;;;;;;;;;4997431;28;20247;-47
2023/08/14 02:18:00;;;;;;;3.50;2.30;;;;;;;;;;5005791;28;20588;-47
2023/08/14 02:20:26;;;;;;;3.33;2.03;;;;;;;;;;5006887;28;20232;-47
2023/08/14 02:22:52;;;;;;;2.22;1.98;;;;;;;;;;4990834;28;20188;-47
2023/08/14 02:25:18;;;;;;;4.68;2.17;;;;;;;;;;5003920;28;20185;-47
2023/08/14 02:27:44;;;;;;;2.45;2.25;;;;;;;;;;4981489;28;20184;-47
2023/08/14 02:30:10;;;;;;;4.53;2.55;;;;;;;;;;4995653;28;20177;-47
2023/08/14 02:32:36;;;;;;;2.55;1.90;;;;;;;;;;4988104;28;20189;-47
2023/08/14 02:35:03;;;;;;;4.90;2.85;;;;;;;;;;4995819;28;20191;-48
2023/08/14 02:37:28;;;;;;;3.55;1.95;;;;;;;;;;4998327;28;20178;-48
2023/08/14 02:39:54;;;;;;;3.75;2.30;;;;;;;;;;5000747;28;20192;-48
2023/08/14 02:42:20;;;;;;;1.83;1.73;;;;;;;;;;4996762;28;20239;-47
2023/08/14 02:44:47;;;;;;;3.17;2.55;;;;;;;;;;4988671;28;20604;-48
2023/08/14 02:47:13;;;;;;;3.42;2.15;;;;;;;;;;4991914;28;20186;-48
2023/08/14 02:49:39;;;;;;;2.85;2.28;;;;;;;;;;5002739;28;20281;-48
2023/08/14 02:52:05;;;;;;;2.38;2.15;;;;;;;;;;4992436;28;20272;-48
2023/08/14 02:54:31;;;;;;;2.70;2.45;;;;;;;;;;4995706;28;20181;-48
2023/08/14 02:56:56;;;;;;;2.03;1.85;;;;;;;;;;4993390;28;20181;-48
2023/08/14 02:59:23;;;;;;;4.13;2.08;;;;;;;;;;4986817;28;20193;-48
2023/08/14 03:01:49;;;;;;;3.10;2.30;;;;;;;;;;4991356;28;20216;-48
2023/08/14 03:04:16;;;;;;;2.67;2.25;;;;;;;;;;4993412;28;20189;-48
2023/08/14 03:06:42;;;;;;;2.20;2.00;;;;;;;;;;4993390;28;20184;-48
2023/08/14 03:09:08;;;;;;;3.08;2.33;;;;;;;;;;5004222;28;20177;-48
2023/08/14 03:11:34;;;;;;;2.72;2.30;;;;;;;;;;4987425;28;20192;-48
2023/08/14 03:13:59;;;;;;;2.72;2.00;;;;;;;;;;4986078;28;20532;-47
2023/08/14 03:16:25;;;;;;;5.05;2.72;;;;;;;;;;4991362;28;20579;-47
2023/08/14 03:18:51;;;;;;;3.88;2.30;;;;;;;;;;5007281;28;20181;-47
2023/08/14 03:21:17;;;;;;;4.30;2.50;;;;;;;;;;5000207;28;20213;-47
2023/08/14 03:23:44;;;;;;;16.48;2.75;;;;;;;;;;4988772;28;20185;-47
2023/08/14 03:26:10;;;;;;;3.13;2.22;;;;;;;;;;4992343;28;20169;-47
2023/08/14 03:28:36;;;;;;;2.83;2.42;;;;;;;;;;5002050;28;20566;-48
2023/08/14 03:31:02;;;;;;;2.60;2.03;;;;;;;;;;4994113;28;20181;-47
2023/08/14 03:33:28;;;;;;;2.40;2.20;;;;;;;;;;4994390;28;20193;-47
2023/08/14 03:35:54;;;;;;;4.07;2.25;;;;;;;;;;5002191;28;20203;-47
2023/08/14 03:38:20;;;;;;;2.47;2.28;;;;;;;;;;4994324;28;20188;-47
2023/08/14 03:40:46;;;;;;;5.70;2.60;;;;;;;;;;4995114;28;20296;-47
2023/08/14 03:43:12;;;;;;;10.15;3.50;;;;;;;;;;5000317;28;20260;-47
2023/08/14 03:45:38;;;;;;;14.27;4.32;;;;;;;;;;4994272;28;20268;-47
2023/08/14 03:48:04;;;;;;;14.57;3.47;;;;;;;;;;4994753;28;20181;-47
2023/08/14 03:50:30;;;;;;;9.90;3.47;;;;;;;;;;4995204;28;20516;-47
2023/08/14 03:52:56;;;;;;;3.58;2.67;;;;;;;;;;4997121;28;20606;-47
2023/08/14 03:55:22;;;;;;;4.90;2.50;;;;;;;;;;4989456;28;20185;-47
2023/08/14 03:57:48;;;;;;;4.03;2.60;;;;;;;;;;5003382;28;20188;-47
2023/08/14 04:00:14;;;;;;;5.68;2.58;;;;;;;;;;4995309;28;20221;-47
2023/08/14 04:02:40;;;;;;;3.72;2.50;;;;;;;;;;5002228;28;20216;-48
2023/08/14 04:05:06;;;;;;;6.43;2.70;;;;;;;;;;4994799;28;20181;-48
2023/08/14 04:07:32;;;;;;;6.95;2.60;;;;;;;;;;4994803;28;20177;-48
2023/08/14 04:09:58;;;;;;;2.95;2.28;;;;;;;;;;4998531;28;20181;-47
2023/08/14 04:12:24;;;;;;;7.55;2.75;;;;;;;;;;4998020;28;20453;-50
2023/08/14 04:14:50;;;;;;;5.43;2.50;;;;;;;;;;4989016;28;20308;-56
2023/08/14 04:17:16;;;;;;;11.95;2.70;;;;;;;;;;4992662;28;20205;-51
2023/08/14 04:19:42;;;;;;;14.93;3.10;;;;;;;;;;4988450;28;20196;-50
2023/08/14 04:22:08;;;;;;;8.57;2.95;;;;;;;;;;4995709;28;20209;-60
2023/08/14 04:24:34;;;;;;;5.18;2.80;;;;;;;;;;4993592;28;20177;-49
2023/08/14 04:27:00;;;;;;;5.57;2.35;;;;;;;;;;4994413;28;20556;-59
2023/08/14 04:29:26;;;;;;;5.78;2.15;;;;;;;;;;4995117;28;20268;-54
2023/08/14 04:31:52;;;;;;;6.22;2.30;;;;;;;;;;4995015;28;20614;-69
2023/08/14 04:34:19;;;;;;;7.57;2.97;;;;;;;;;;4999997;28;20227;-60
2023/08/14 04:36:45;;;;;;;3.97;2.33;;;;;;;;;;4993624;28;20184;-50
2023/08/14 04:39:11;;;;;;;6.05;2.30;;;;;;;;;;5005738;28;20177;-49
2023/08/14 04:41:36;;;;;;;9.93;2.58;;;;;;;;;;4999360;28;20215;-50
2023/08/14 04:44:02;;;;;;;7.03;2.55;;;;;;;;;;4998112;28;20177;-50
2023/08/14 04:46:31;;;;;;;7.55;2.10;;;;;;;;;;5007917;28;20188;-52
2023/08/14 04:48:58;;;;;;;6.65;2.35;;;;;;;;;;5003974;28;20228;-55
2023/08/14 04:51:24;;;;;;;4.88;2.95;;;;;;;;;;4998340;28;20177;-49
2023/08/14 04:53:50;;;;;;;6.63;2.17;;;;;;;;;;4995540;28;20264;-51
2023/08/14 04:56:16;;;;;;;3.72;2.45;;;;;;;;;;4996886;28;20213;-47
2023/08/14 04:58:42;;;;;;;4.25;2.20;;;;;;;;;;4988138;28;20544;-47
2023/08/14 05:01:08;;;;;;;4.57;2.35;;;;;;;;;;4995056;28;20612;-47
2023/08/14 05:03:34;;;;;;;4.55;2.50;;;;;;;;;;5001430;28;20232;-47
2023/08/14 05:06:00;;;;;;;4.28;2.35;;;;;;;;;;4994227;28;20216;-47
2023/08/14 05:08:26;;;;;;;8.90;2.58;;;;;;;;;;5003270;28;20177;-47
2023/08/14 05:10:52;;;;;;;6.82;2.53;;;;;;;;;;5005381;28;20231;-47
2023/08/14 05:13:19;;;;;;;6.22;2.40;;;;;;;;;;5001993;28;20599;-47
2023/08/14 05:15:49;;;;;;;6.05;2.10;;;;;;;;;;4996769;28;20217;-47
2023/08/14 05:18:15;;;;;;;7.88;2.22;;;;;;;;;;4991244;28;20185;-47
2023/08/14 05:20:44;;;;;;;4.22;2.20;;;;;;;;;;5005426;28;20267;-46
2023/08/14 05:23:10;;;;;;;6.05;2.35;;;;;;;;;;4997284;28;20200;-46
2023/08/14 05:25:36;;;;;;;2.63;2.30;;;;;;;;;;4996250;28;20170;-47
2023/08/14 05:28:02;;;;;;;5.30;2.42;;;;;;;;;;4995581;28;20544;-46
2023/08/14 05:30:28;;;;;;;4.68;2.80;;;;;;;;;;4991427;28;20196;-46
2023/08/14 05:32:54;;;;;;;3.35;2.50;;;;;;;;;;4998373;28;20181;-46
2023/08/14 05:35:23;;;;;;;5.47;2.50;;;;;;;;;;5002450;28;20181;-47
2023/08/14 05:37:52;;;;;;;5.28;2.30;;;;;;;;;;4990029;28;20177;-47
2023/08/14 05:40:19;;;;;;;5.63;2.60;;;;;;;;;;5003249;28;20181;-46
2023/08/14 05:42:45;;;;;;;5.55;2.65;;;;;;;;;;4992538;28;20268;-46
2023/08/14 05:45:11;;;;;;;4.30;2.55;;;;;;;;;;4989647;28;20641;-47
2023/08/14 05:47:37;;;;;;;4.53;2.22;;;;;;;;;;4993063;28;20300;-46
2023/08/14 05:50:03;;;;;;;3.17;2.00;;;;;;;;;;4993510;28;20195;-46
2023/08/14 05:52:29;;;;;;;3.67;1.88;;;;;;;;;;4989644;28;20204;-46
2023/08/14 05:54:55;;;;;;;5.20;2.50;;;;;;;;;;5011792;28;20188;-46
2023/08/14 05:57:21;;;;;;;4.10;2.45;;;;;;;;;;4996724;28;20197;-46
2023/08/14 05:59:47;;;;;;;6.80;2.38;;;;;;;;;;5008417;28;20220;-46
2023/08/14 06:02:13;;;;;;;3.65;2.40;;;;;;;;;;4994000;28;20280;-46
2023/08/14 06:04:40;;;;;;;3.75;2.53;;;;;;;;;;5004183;28;20181;-46
2023/08/14 06:07:06;;;;;;;5.65;2.45;;;;;;;;;;4992726;28;20452;-46
2023/08/14 06:09:32;;;;;;;5.18;2.95;;;;;;;;;;4985215;28;20240;-46
2023/08/14 06:11:58;;;;;;;3.10;2.72;;;;;;;;;;4994746;28;20189;-46
2023/08/14 06:14:24;;;;;;;2.83;2.63;;;;;;;;;;4993076;28;20204;-46
2023/08/14 06:16:50;;;;;;;4.05;2.90;;;;;;;;;;5003120;28;20276;-47
2023/08/14 06:19:16;;;;;;;2.60;2.40;;;;;;;;;;4988253;28;20273;-47
2023/08/14 06:21:42;;;;;;;3.92;2.85;;;;;;;;;;4992539;28;20231;-46
2023/08/14 06:24:08;;;;;;;4.47;3.03;;;;;;;;;;4987672;28;20188;-46
2023/08/14 06:26:34;;;;;;;4.75;3.15;;;;;;;;;;4993429;28;20445;-46
2023/08/14 06:29:00;;;;;;;3.00;2.70;;;;;;;;;;5000283;28;20216;-47
2023/08/14 06:31:26;;;;;;;6.57;2.40;;;;;;;;;;4994797;28;20196;-47
2023/08/14 06:33:52;;;;;;;3.67;2.78;;;;;;;;;;4985502;28;20182;-46
2023/08/14 06:36:18;;;;;;;3.22;2.22;;;;;;;;;;5003624;28;20237;-46
2023/08/14 06:38:43;;;;;;;3.92;2.40;;;;;;;;;;4992262;28;20189;-46
2023/08/14 06:41:09;;;;;;;2.75;2.45;;;;;;;;;;4992153;28;20220;-46
2023/08/14 06:43:36;;;;;;;5.70;2.47;;;;;;;;;;4994676;28;20181;-46
2023/08/14 06:46:01;;;;;;;2.40;2.20;;;;;;;;;;4997892;28;20634;-46
2023/08/14 06:48:29;;;;;;;4.22;2.40;;;;;;;;;;4988974;28;20209;-46
2023/08/14 06:50:57;;;;;;;2.60;2.30;;;;;;;;;;4993451;28;20215;-46
2023/08/14 06:53:23;;;;;;;3.28;2.30;;;;;;;;;;4994481;28;20205;-47
2023/08/14 06:55:49;;;;;;;3.92;2.67;;;;;;;;;;4995089;28;20339;-47
2023/08/14 06:58:15;;;;;;;3.83;2.88;;;;;;;;;;4987462;28;20541;-47
2023/08/14 07:00:41;;;;;;;2.70;2.47;;;;;;;;;;4994229;28;20472;-47
2023/08/14 07:03:07;;;;;;;9.07;2.80;;;;;;;;;;4982588;28;20186;-46
2023/08/14 07:05:33;;;;;;;2.50;2.30;;;;;;;;;;4990556;28;20212;-46
2023/08/14 07:07:59;;;;;;;3.67;2.30;;;;;;;;;;4994874;28;20746;-46
2023/08/14 07:10:25;;;;;;;3.03;2.28;;;;;;;;;;4985925;28;20177;-46
2023/08/14 07:12:51;;;;;;;2.67;2.40;;;;;;;;;;4991882;28;20173;-46
2023/08/14 07:15:17;;;;;;;2.50;2.22;;;;;;;;;;4992803;28;20177;-46
2023/08/14 07:17:42;;;;;;;3.28;2.47;;;;;;;;;;5001487;28;20209;-47
2023/08/14 07:20:09;;;;;;;2.50;2.30;;;;;;;;;;5000551;28;20236;-46
2023/08/14 07:22:35;;;;;;;2.35;2.15;;;;;;;;;;4994041;28;20749;-47
2023/08/14 07:25:00;;;;;;;2.47;2.28;;;;;;;;;;4994832;28;20196;-47
2023/08/14 07:27:26;;;;;;;3.33;2.45;;;;;;;;;;4991184;28;20224;-47
2023/08/14 07:29:52;;;;;;;3.00;2.17;;;;;;;;;;4994462;28;20704;-47
2023/08/14 07:32:18;;;;;;;2.20;2.10;;;;;;;;;;4992093;28;20284;-47
2023/08/14 07:34:44;;;;;;;2.88;2.17;;;;;;;;;;4990087;28;20212;-46
2023/08/14 07:37:10;;;;;;;2.45;2.10;;;;;;;;;;4995081;28;20216;-46
2023/08/14 07:39:36;;;;;;;3.50;2.38;;;;;;;;;;4999583;28;20193;-46
2023/08/14 07:42:03;;;;;;;2.60;2.10;;;;;;;;;;4993726;28;20215;-46
2023/08/14 07:44:29;;;;;;;2.58;1.90;;;;;;;;;;4998356;28;20220;-46
2023/08/14 07:46:55;;;;;;;4.82;2.35;;;;;;;;;;4997055;28;20244;-46
2023/08/14 07:49:21;;;;;;;2.63;2.38;;;;;;;;;;5000548;28;20185;-46
2023/08/14 07:51:47;;;;;;;4.05;2.15;;;;;;;;;;4993040;28;20470;-46
2023/08/14 07:54:13;;;;;;;3.65;2.15;;;;;;;;;;4993669;28;20203;-46
2023/08/14 07:56:39;;;;;;;3.63;2.40;;;;;;;;;;4999047;28;20177;-47
2023/08/14 07:59:05;;;;;;;3.70;2.10;;;;;;;;;;4984012;28;20232;-46
2023/08/14 08:01:31;;;;;;;3.03;2.10;;;;;;;;;;4993694;28;20197;-46
2023/08/14 08:03:57;;;;;;;4.30;2.45;;;;;;;;;;4987353;28;20192;-46
2023/08/14 08:06:24;;;;;;;2.72;2.17;;;;;;;;;;4997896;28;20257;-46
2023/08/14 08:08:50;;;;;;;2.25;2.00;;;;;;;;;;4986018;28;20192;-46
2023/08/14 08:11:16;;;;;;;2.97;1.83;;;;;;;;;;4987868;28;20367;-46
2023/08/14 08:13:42;;;;;;;3.65;2.25;;;;;;;;;;4981745;28;20272;-47
2023/08/14 08:16:08;;;;;;;4.75;2.33;;;;;;;;;;4993009;28;20186;-47
2023/08/14 08:18:34;;;;;;;4.00;2.20;;;;;;;;;;4998793;28;20188;-46
2023/08/14 08:21:00;;;;;;;3.75;2.20;;;;;;;;;;4997016;28;20226;-47
2023/08/14 08:23:26;;;;;;;4.43;2.83;;;;;;;;;;4997961;28;20616;-47
2023/08/14 08:25:52;;;;;;;3.95;2.40;;;;;;;;;;4995359;28;20181;-46
2023/08/14 08:28:18;;;;;;;3.45;2.05;;;;;;;;;;4993209;28;20181;-46
2023/08/14 08:30:44;;;;;;;2.00;1.90;;;;;;;;;;4998012;28;20173;-46
2023/08/14 08:33:10;;;;;;;4.35;2.30;;;;;;;;;;4991218;28;20449;-46
2023/08/14 08:35:36;;;;;;;6.97;2.53;;;;;;;;;;4988528;28;20181;-46
2023/08/14 08:38:02;;;;;;;14.38;3.13;;;;;;;;;;4987511;28;20185;-46
2023/08/14 08:40:30;;;;;;;3.08;1.83;;;;;;;;;;4996456;28;20469;-47
2023/08/14 08:42:56;;;;;;;3.42;2.60;;;;;;;;;;5013789;28;20183;-46
2023/08/14 08:45:23;;;;;;;3.80;2.13;;;;;;;;;;4993504;28;20173;-46
2023/08/14 08:47:51;;;;;;;3.00;2.20;;;;;;;;;;4994812;28;20259;-46
2023/08/14 08:50:17;;;;;;;3.03;2.10;;;;;;;;;;4993062;28;20201;-46
2023/08/14 08:52:43;;;;;;;3.40;2.63;;;;;;;;;;4997427;28;20279;-46
2023/08/14 08:55:09;;;;;;;2.90;2.45;;;;;;;;;;4992413;28;20181;-46
2023/08/14 08:57:35;;;;;;;3.22;2.30;;;;;;;;;;5000768;28;20565;-46
2023/08/14 09:00:02;;;;;;;2.38;2.10;;;;;;;;;;4994633;28;20169;-46
2023/08/14 09:02:28;;;;;;;2.70;2.20;;;;;;;;;;5004732;28;20205;-46
2023/08/14 09:04:54;;;;;;;2.72;2.17;;;;;;;;;;4995735;28;20237;-47
2023/08/14 09:07:20;;;;;;;6.72;2.50;;;;;;;;;;5000545;28;20189;-47
2023/08/14 09:09:46;;;;;;;5.95;2.50;;;;;;;;;;5000769;28;20189;-47
2023/08/14 09:12:12;;;;;;;3.47;2.17;;;;;;;;;;4996410;28;20266;-47
2023/08/14 09:14:43;;;;;;;3.88;2.42;;;;;;;;;;4996414;28;20189;-47
2023/08/14 09:17:10;;;;;;;2.75;1.85;;;;;;;;;;5005722;28;20185;-47
2023/08/14 09:19:37;;;;;;;3.38;2.25;;;;;;;;;;4994964;28;20197;-47
2023/08/14 09:22:03;;;;;;;3.05;2.50;;;;;;;;;;4996540;28;20285;-46
2023/08/14 09:24:33;;;;;;;3.97;2.42;;;;;;;;;;4991204;28;20268;-47
2023/08/14 09:26:59;;;;;;;5.57;2.33;;;;;;;;;;4986803;28;20200;-47
2023/08/14 09:29:25;;;;;;;3.65;2.20;;;;;;;;;;4996825;28;20212;-46
2023/08/14 09:31:52;;;;;;;4.25;2.60;;;;;;;;;;4992436;28;20192;-47
2023/08/14 09:34:18;;;;;;;6.18;3.10;;;;;;;;;;4993537;28;20557;-47
2023/08/14 09:36:44;;;;;;;4.07;2.65;;;;;;;;;;4997162;28;20209;-47
2023/08/14 09:39:11;;;;;;;4.55;2.90;;;;;;;;;;4996606;28;20224;-46
2023/08/14 09:41:37;;;;;;;3.83;2.80;;;;;;;;;;4986805;28;20300;-46
2023/08/14 09:44:03;;;;;;;4.38;2.78;;;;;;;;;;4992687;28;20463;-46
2023/08/14 09:46:29;;;;;;;4.35;2.63;;;;;;;;;;4986009;28;20765;-47
2023/08/14 09:48:55;;;;;;;3.30;2.80;;;;;;;;;;4996972;28;20260;-47
2023/08/14 09:51:22;;;;;;;4.22;2.67;;;;;;;;;;4998453;28;20196;-47
2023/08/14 09:53:54;;;;;;;4.55;2.78;;;;;;;;;;4995919;28;20181;-47
2023/08/14 09:56:20;;;;;;;4.95;2.92;;;;;;;;;;4998786;28;20492;-48
2023/08/14 09:58:47;;;;;;;5.15;3.15;;;;;;;;;;4991074;28;20205;-47
2023/08/14 10:01:13;;;;;;;3.17;2.38;;;;;;;;;;4998143;28;20201;-47
2023/08/14 10:03:41;;;;;;;5.13;3.30;;;;;;;;;;5004109;28;20185;-47
2023/08/14 10:06:07;;;;;;;5.72;3.10;;;;;;;;;;4989133;28;20577;-47
2023/08/14 10:08:37;;;;;;;3.90;2.65;;;;;;;;;;4993384;28;20514;-47
2023/08/14 10:11:03;;;;;;;3.10;2.83;;;;;;;;;;4993170;28;20252;-47
2023/08/14 10:13:30;;;;;;;3.70;3.17;;;;;;;;;;4991739;28;20177;-46
2023/08/14 10:15:56;;;;;;;3.28;2.63;;;;;;;;;;4992202;28;20496;-46
2023/08/14 10:18:23;;;;;;;3.15;2.80;;;;;;;;;;4995266;28;20228;-47
2023/08/14 10:20:50;;;;;;;3.08;2.53;;;;;;;;;;5003558;28;20207;-47
2023/08/14 10:23:17;;;;;;;4.03;3.33;;;;;;;;;;4995235;28;20240;-47
2023/08/14 10:25:47;;;;;;;5.10;2.95;;;;;;;;;;4995841;28;20181;-46
2023/08/14 10:28:13;;;;;;;3.97;2.75;;;;;;;;;;4998172;28;20193;-46
2023/08/14 10:30:39;;;;;;;3.33;3.03;;;;;;;;;;4992695;28;20217;-46
2023/08/14 10:33:06;;;;;;;3.00;2.70;;;;;;;;;;4989982;28;20493;-46
2023/08/14 10:35:44;;;;;;;4.50;2.55;;;;;;;;;;4990715;28;20177;-46
2023/08/14 10:38:10;;;;;;;3.03;2.72;;;;;;;;;;5002541;28;20797;-46
2023/08/14 10:40:36;;;;;;;2.85;2.58;;;;;;;;;;4996113;28;20216;-46
2023/08/14 10:43:05;;;;;;;3.60;2.65;;;;;;;;;;4994400;28;20177;-46
2023/08/14 10:45:31;;;;;;;3.30;2.60;;;;;;;;;;4991057;28;20176;-46
2023/08/14 10:48:07;;;;;;;3.95;2.50;;;;;;;;;;4990999;28;20584;-47
2023/08/14 10:50:33;;;;;;;6.32;3.00;;;;;;;;;;5003668;28;20552;-47
2023/08/14 10:53:02;;;;;;;3.90;2.88;;;;;;;;;;4989528;28;20201;-47
2023/08/14 10:55:38;;;;;;;4.30;2.65;;;;;;;;;;4997580;28;20177;-47
2023/08/14 10:58:23;;;;;;;5.15;2.60;;;;;;;;;;4996620;28;20204;-47
2023/08/14 11:00:51;;;;;;;3.15;2.85;;;;;;;;;;4990043;28;20208;-46
2023/08/14 11:03:17;;;;;;;4.13;2.80;;;;;;;;;;4994572;28;20188;-46
2023/08/14 11:05:43;;;;;;;4.05;3.10;;;;;;;;;;4989108;28;20184;-46
2023/08/14 11:08:11;;;;;;;3.90;2.63;;;;;;;;;;4995646;28;20184;-46
2023/08/14 11:10:37;;;;;;;4.93;2.95;;;;;;;;;;4995914;28;20459;-46
2023/08/14 11:13:08;;;;;;;2.95;2.63;;;;;;;;;;4995271;28;20276;-47
2023/08/14 11:15:35;;;;;;;4.68;3.20;;;;;;;;;;4986358;28;20173;-46
2023/08/14 11:18:01;;;;;;;2.90;2.60;;;;;;;;;;4994351;28;20201;-46
2023/08/14 11:20:28;;;;;;;3.30;2.65;;;;;;;;;;4990808;28;20216;-46
2023/08/14 11:22:54;;;;;;;2.88;2.67;;;;;;;;;;4991477;28;20200;-47
2023/08/14 11:25:21;;;;;;;3.03;2.75;;;;;;;;;;4988073;28;20217;-46
2023/08/14 11:27:53;;;;;;;3.95;2.55;;;;;;;;;;4990074;28;20177;-46
2023/08/14 11:30:21;;;;;;;3.13;2.83;;;;;;;;;;4995240;28;20208;-46
2023/08/14 11:32:47;;;;;;;5.45;3.17;;;;;;;;;;4994710;28;20177;-46
2023/08/14 11:35:13;;;;;;;3.33;2.95;;;;;;;;;;4991715;28;20184;-46
2023/08/14 11:37:39;;;;;;;3.53;3.00;;;;;;;;;;4994917;28;20185;-47
2023/08/14 11:40:06;;;;;;;3.30;2.97;;;;;;;;;;4994619;28;20188;-47
2023/08/14 11:42:36;;;;;;;4.70;2.55;;;;;;;;;;4993938;28;20213;-46
2023/08/14 11:45:03;;;;;;;3.53;2.83;;;;;;;;;;4989217;28;20244;-46
2023/08/14 11:47:31;;;;;;;7.25;3.10;;;;;;;;;;4994081;28;20465;-46
2023/08/14 11:49:57;;;;;;;6.32;4.22;;;;;;;;;;4996860;28;20184;-47
2023/08/14 11:52:23;;;;;;;5.70;3.78;;;;;;;;;;4993737;28;20229;-47
2023/08/14 11:54:49;;;;;;;11.18;5.70;;;;;;;;;;4990275;28;20193;-47
2023/08/14 11:57:15;;;;;;;15.90;5.93;;;;;;;;;;4991880;28;20247;-46
2023/08/14 11:59:43;;;;;;;16.23;7.70;;;;;;;;;;4998112;28;20739;-47
2023/08/14 12:02:10;;;;;;;5.70;3.90;;;;;;;;;;4993660;28;20230;-47
2023/08/14 12:04:40;;;;;;;6.85;3.20;;;;;;;;;;5005438;28;20275;-47
2023/08/14 12:07:06;;;;;;;5.90;2.88;;;;;;;;;;4994285;28;20173;-47
2023/08/14 12:09:32;;;;;;;4.32;2.95;;;;;;;;;;4994776;28;20185;-46
2023/08/14 12:11:58;;;;;;;3.97;3.13;;;;;;;;;;4997591;28;20444;-46
2023/08/14 12:14:24;;;;;;;4.28;3.20;;;;;;;;;;4995738;28;20263;-46
2023/08/14 12:16:50;;;;;;;3.67;2.85;;;;;;;;;;4992525;28;20272;-46
2023/08/14 12:19:19;;;;;;;3.53;2.80;;;;;;;;;;4987744;28;20235;-46
2023/08/14 12:21:45;;;;;;;5.53;3.10;;;;;;;;;;4994238;28;20223;-47
2023/08/14 12:24:16;;;;;;;4.38;3.17;;;;;;;;;;4994146;28;20169;-46
2023/08/14 12:26:44;;;;;;;6.05;3.20;;;;;;;;;;4993724;28;20181;-46
2023/08/14 12:29:10;;;;;;;3.22;2.38;;;;;;;;;;4993953;28;20184;-47
2023/08/14 12:31:36;;;;;;;5.88;2.22;;;;;;;;;;4993124;28;20213;-46
2023/08/14 12:34:02;;;;;;;4.18;2.58;;;;;;;;;;4984106;28;20460;-46
2023/08/14 12:36:28;;;;;;;2.63;2.20;;;;;;;;;;4997642;28;20189;-46
2023/08/14 12:38:54;;;;;;;2.90;2.60;;;;;;;;;;4993029;28;20662;-46
2023/08/14 12:41:19;;;;;;;3.08;2.25;;;;;;;;;;4988738;28;20557;-46
2023/08/14 12:43:45;;;;;;;2.83;2.30;;;;;;;;;;4985871;28;20268;-46
2023/08/14 12:46:11;;;;;;;2.70;2.50;;;;;;;;;;4997067;28;20319;-46
2023/08/14 12:48:37;;;;;;;4.13;2.50;;;;;;;;;;4996545;28;20264;-46
2023/08/14 12:51:03;;;;;;;2.45;2.00;;;;;;;;;;4991576;28;20632;-46
2023/08/14 12:53:29;;;;;;;2.25;2.05;;;;;;;;;;4990909;28;20631;-46
2023/08/14 12:55:55;;;;;;;2.78;2.30;;;;;;;;;;4998740;28;20189;-46
2023/08/14 12:58:23;;;;;;;2.72;2.13;;;;;;;;;;4992778;28;20196;-46
2023/08/14 13:00:49;;;;;;;2.17;1.98;;;;;;;;;;4992671;28;20195;-47
2023/08/14 13:03:15;;;;;;;3.50;1.95;;;;;;;;;;4997631;28;20185;-46
2023/08/14 13:05:41;;;;;;;2.35;2.15;;;;;;;;;;5004930;28;20514;-46
2023/08/14 13:08:07;;;;;;;2.88;2.20;;;;;;;;;;4990953;28;20187;-47
2023/08/14 13:10:33;;;;;;;2.97;1.90;;;;;;;;;;4996242;28;20181;-46
2023/08/14 13:12:59;;;;;;;1.95;1.83;;;;;;;;;;4982042;28;20276;-46
2023/08/14 13:15:25;;;;;;;7.85;1.70;;;;;;;;;;4989140;28;20269;-46
2023/08/14 13:17:51;;;;;;;2.10;1.90;;;;;;;;;;4991497;28;20177;-46
2023/08/14 13:20:17;;;;;;;2.97;2.05;;;;;;;;;;4992530;28;20196;-47
2023/08/14 13:22:43;;;;;;;2.15;1.80;;;;;;;;;;4995203;28;20205;-46
2023/08/14 13:25:09;;;;;;;2.97;2.00;;;;;;;;;;4997546;28;20568;-46
2023/08/14 13:27:35;;;;;;;2.55;2.08;;;;;;;;;;4993498;28;20209;-46
2023/08/14 13:30:01;;;;;;;2.83;1.80;;;;;;;;;;4996821;28;20801;-47
2023/08/14 13:32:27;;;;;;;3.17;2.08;;;;;;;;;;4988593;28;20209;-47
2023/08/14 13:34:53;;;;;;;4.03;1.80;;;;;;;;;;5001564;28;20180;-47
2023/08/14 13:37:19;;;;;;;5.50;1.95;;;;;;;;;;4990445;28;20181;-47
2023/08/14 13:39:47;;;;;;;3.58;2.10;;;;;;;;;;4997261;28;20181;-46
2023/08/14 13:42:13;;;;;;;4.05;2.03;;;;;;;;;;4991929;28;20204;-46
2023/08/14 13:44:38;;;;;;;2.20;1.70;;;;;;;;;;4996559;28;20189;-46
2023/08/14 13:47:04;;;;;;;3.20;1.98;;;;;;;;;;4995727;28;20222;-47
2023/08/14 13:49:31;;;;;;;4.70;2.28;;;;;;;;;;4991640;28;20604;-46
2023/08/14 13:51:57;;;;;;;3.17;2.17;;;;;;;;;;4987860;28;20196;-46
2023/08/14 13:54:23;;;;;;;2.40;2.20;;;;;;;;;;5003539;28;20235;-46
2023/08/14 13:56:49;;;;;;;3.97;2.30;;;;;;;;;;5001128;28;20251;-46
2023/08/14 13:59:15;;;;;;;3.03;2.10;;;;;;;;;;4993944;28;20270;-46
2023/08/14 14:01:41;;;;;;;4.47;2.50;;;;;;;;;;4991237;28;20596;-46
2023/08/14 14:04:06;;;;;;;3.63;2.38;;;;;;;;;;4999650;28;20259;-46
2023/08/14 14:06:32;;;;;;;2.72;2.30;;;;;;;;;;4986528;28;20313;-46
2023/08/14 14:08:58;;;;;;;5.40;2.50;;;;;;;;;;4996292;28;20564;-46
2023/08/14 14:11:24;;;;;;;3.15;2.63;;;;;;;;;;4999117;28;20189;-47
2023/08/14 14:13:51;;;;;;;5.65;2.22;;;;;;;;;;5002862;28;20224;-47
2023/08/14 14:16:21;;;;;;;2.80;2.33;;;;;;;;;;4993895;28;20181;-46
2023/08/14 14:18:47;;;;;;;4.38;2.45;;;;;;;;;;4994396;28;20185;-47
2023/08/14 14:21:13;;;;;;;2.40;2.20;;;;;;;;;;4992810;28;20220;-46
2023/08/14 14:23:39;;;;;;;2.97;2.67;;;;;;;;;;5019177;28;20188;-47
2023/08/14 14:26:05;;;;;;;5.35;2.38;;;;;;;;;;4993888;28;20307;-46
2023/08/14 14:28:31;;;;;;;2.85;2.30;;;;;;;;;;4990791;28;20193;-46
2023/08/14 14:30:57;;;;;;;3.40;2.45;;;;;;;;;;5015602;28;20227;-46
2023/08/14 14:33:23;;;;;;;3.95;2.40;;;;;;;;;;4993644;28;20192;-46
2023/08/14 14:35:49;;;;;;;5.93;2.58;;;;;;;;;;4995923;28;20460;-46
2023/08/14 14:38:14;;;;;;;5.68;2.40;;;;;;;;;;4995463;28;20260;-47